sensor_id;sensor_type;location;lat;lon;timestamp;temperature;humidity
69823;SHT31;57119;52.516;13.508;2024-02-21T00:02:04;8.06;99.99
69823;SHT31;57119;52.516;13.508;2024-02-21T00:04:29;8.04;99.99
69823;SHT31;57119;52.516;13.508;2024-02-21T00:06:55;8.09;99.99
69823;SHT31;57119;52.516;13.508;2024-02-21T00:09:20;8.07;99.99
69823;SHT31;57119;52.516;13.508;2024-02-21T00:11:46;8.07;99.99
69823;SHT31;57119;52.516;13.508;2024-02-21T00:14:11;8.02;99.99
69823;SHT31;57119;52.516;13.508;2024-02-21T00:16:36;8.03;99.99
69823;SHT31;57119;52.516;13.508;2024-02-21T00:19:02;8.09;99.99
69823;SHT31;57119;52.516;13.508;2024-02-21T00:21:27;8.07;99.99
69823;SHT31;57119;52.516;13.508;2024-02-21T00:23:52;8.03;99.99
69823;SHT31;57119;52.516;13.508;2024-02-21T00:26:18;8.02;99.99
69823;SHT31;57119;52.516;13.508;2024-02-21T00:28:43;8.10;99.99
69823;SHT31;57119;52.516;13.508;2024-02-21T00:31:10;8.07;99.99
69823;SHT31;57119;52.516;13.508;2024-02-21T00:33:35;8.06;99.99
69823;SHT31;57119;52.516;13.508;2024-02-21T00:36:01;8.03;99.99
69823;SHT31;57119;52.516;13.508;2024-02-21T00:38:26;8.02;99.99
69823;SHT31;57119;52.516;13.508;2024-02-21T00:40:51;8.02;99.99
69823;SHT31;57119;52.516;13.508;2024-02-21T00:43:17;8.02;99.99
69823;SHT31;57119;52.516;13.508;2024-02-21T00:45:42;7.96;99.99
69823;SHT31;57119;52.516;13.508;2024-02-21T00:48:07;7.97;99.99
69823;SHT31;57119;52.516;13.508;2024-02-21T00:50:33;7.92;99.99
69823;SHT31;57119;52.516;13.508;2024-02-21T00:52:58;7.93;99.99
69823;SHT31;57119;52.516;13.508;2024-02-21T00:55:24;7.93;99.99
69823;SHT31;57119;52.516;13.508;2024-02-21T00:57:49;7.92;99.99
69823;SHT31;57119;52.516;13.508;2024-02-21T01:00:15;7.90;99.99
69823;SHT31;57119;52.516;13.508;2024-02-21T01:02:40;7.89;99.99
69823;SHT31;57119;52.516;13.508;2024-02-21T01:05:06;7.90;99.99
69823;SHT31;57119;52.516;13.508;2024-02-21T01:07:32;7.99;99.99
69823;SHT31;57119;52.516;13.508;2024-02-21T01:09:57;7.94;99.99
69823;SHT31;57119;52.516;13.508;2024-02-21T01:12:22;7.94;99.99
69823;SHT31;57119;52.516;13.508;2024-02-21T01:14:48;7.96;99.99
69823;SHT31;57119;52.516;13.508;2024-02-21T01:17:14;8.04;99.99
69823;SHT31;57119;52.516;13.508;2024-02-21T01:19:40;8.02;99.99
69823;SHT31;57119;52.516;13.508;2024-02-21T01:22:05;8.04;99.99
69823;SHT31;57119;52.516;13.508;2024-02-21T01:24:31;8.03;99.99
69823;SHT31;57119;52.516;13.508;2024-02-21T01:26:56;8.02;99.99
69823;SHT31;57119;52.516;13.508;2024-02-21T01:29:21;8.00;99.99
69823;SHT31;57119;52.516;13.508;2024-02-21T01:31:47;8.09;99.99
69823;SHT31;57119;52.516;13.508;2024-02-21T01:34:12;8.04;99.99
69823;SHT31;57119;52.516;13.508;2024-02-21T01:36:38;8.06;99.99
69823;SHT31;57119;52.516;13.508;2024-02-21T01:39:03;8.17;99.99
69823;SHT31;57119;52.516;13.508;2024-02-21T01:41:31;8.16;99.99
69823;SHT31;57119;52.516;13.508;2024-02-21T01:43:57;8.20;99.99
69823;SHT31;57119;52.516;13.508;2024-02-21T01:46:24;8.17;99.99
69823;SHT31;57119;52.516;13.508;2024-02-21T01:48:54;8.16;99.99
69823;SHT31;57119;52.516;13.508;2024-02-21T01:51:19;8.16;99.99
69823;SHT31;57119;52.516;13.508;2024-02-21T01:53:44;8.20;99.99
69823;SHT31;57119;52.516;13.508;2024-02-21T01:56:12;8.23;99.99
69823;SHT31;57119;52.516;13.508;2024-02-21T01:58:39;8.23;99.99
69823;SHT31;57119;52.516;13.508;2024-02-21T02:01:06;8.21;99.99
69823;SHT31;57119;52.516;13.508;2024-02-21T02:03:31;8.16;99.99
69823;SHT31;57119;52.516;13.508;2024-02-21T02:05:57;8.21;99.99
69823;SHT31;57119;52.516;13.508;2024-02-21T02:08:22;8.17;99.99
69823;SHT31;57119;52.516;13.508;2024-02-21T02:10:48;8.23;99.98
69823;SHT31;57119;52.516;13.508;2024-02-21T02:13:14;8.23;99.89
69823;SHT31;57119;52.516;13.508;2024-02-21T02:15:47;8.20;99.89
69823;SHT31;57119;52.516;13.508;2024-02-21T02:18:13;8.19;99.96
69823;SHT31;57119;52.516;13.508;2024-02-21T02:20:39;8.20;99.99
69823;SHT31;57119;52.516;13.508;2024-02-21T02:23:21;8.24;99.99
69823;SHT31;57119;52.516;13.508;2024-02-21T02:25:47;8.14;99.99
69823;SHT31;57119;52.516;13.508;2024-02-21T02:28:17;8.20;99.99
69823;SHT31;57119;52.516;13.508;2024-02-21T02:30:43;8.12;99.99
69823;SHT31;57119;52.516;13.508;2024-02-21T02:33:08;8.02;99.99
69823;SHT31;57119;52.516;13.508;2024-02-21T02:35:34;7.97;99.99
69823;SHT31;57119;52.516;13.508;2024-02-21T02:38:04;7.92;99.99
69823;SHT31;57119;52.516;13.508;2024-02-21T02:40:33;7.83;99.99
69823;SHT31;57119;52.516;13.508;2024-02-21T02:42:59;7.83;99.99
69823;SHT31;57119;52.516;13.508;2024-02-21T02:45:25;7.82;99.99
69823;SHT31;57119;52.516;13.508;2024-02-21T02:47:52;7.79;99.99
69823;SHT31;57119;52.516;13.508;2024-02-21T02:50:19;7.73;99.99
69823;SHT31;57119;52.516;13.508;2024-02-21T02:52:45;7.73;99.99
69823;SHT31;57119;52.516;13.508;2024-02-21T02:55:10;7.71;99.99
69823;SHT31;57119;52.516;13.508;2024-02-21T02:57:36;7.66;99.99
69823;SHT31;57119;52.516;13.508;2024-02-21T03:00:01;7.65;99.99
69823;SHT31;57119;52.516;13.508;2024-02-21T03:02:27;7.64;99.99
69823;SHT31;57119;52.516;13.508;2024-02-21T03:04:53;7.64;99.99
69823;SHT31;57119;52.516;13.508;2024-02-21T03:07:19;7.69;99.99
69823;SHT31;57119;52.516;13.508;2024-02-21T03:09:44;7.64;99.99
69823;SHT31;57119;52.516;13.508;2024-02-21T03:12:10;7.65;99.99
69823;SHT31;57119;52.516;13.508;2024-02-21T03:14:36;7.58;99.99
69823;SHT31;57119;52.516;13.508;2024-02-21T03:17:02;7.61;99.99
69823;SHT31;57119;52.516;13.508;2024-02-21T03:19:28;7.58;99.99
69823;SHT31;57119;52.516;13.508;2024-02-21T03:21:54;7.56;99.99
69823;SHT31;57119;52.516;13.508;2024-02-21T03:24:19;7.55;99.99
69823;SHT31;57119;52.516;13.508;2024-02-21T03:26:46;7.55;99.99
69823;SHT31;57119;52.516;13.508;2024-02-21T03:29:14;7.55;99.99
69823;SHT31;57119;52.516;13.508;2024-02-21T03:31:40;7.55;99.99
69823;SHT31;57119;52.516;13.508;2024-02-21T03:34:05;7.51;99.99
69823;SHT31;57119;52.516;13.508;2024-02-21T03:36:30;7.50;99.99
69823;SHT31;57119;52.516;13.508;2024-02-21T03:38:56;7.50;99.99
69823;SHT31;57119;52.516;13.508;2024-02-21T03:41:21;7.51;99.99
69823;SHT31;57119;52.516;13.508;2024-02-21T03:43:47;7.48;99.99
69823;SHT31;57119;52.516;13.508;2024-02-21T03:46:13;7.47;99.99
69823;SHT31;57119;52.516;13.508;2024-02-21T03:48:38;7.44;99.99
69823;SHT31;57119;52.516;13.508;2024-02-21T03:51:06;7.43;99.99
69823;SHT31;57119;52.516;13.508;2024-02-21T03:53:31;7.38;99.99
69823;SHT31;57119;52.516;13.508;2024-02-21T03:55:57;7.38;99.99
69823;SHT31;57119;52.516;13.508;2024-02-21T03:58:28;7.34;99.99
69823;SHT31;57119;52.516;13.508;2024-02-21T04:00:53;7.36;99.99
69823;SHT31;57119;52.516;13.508;2024-02-21T04:03:18;7.35;99.99
69823;SHT31;57119;52.516;13.508;2024-02-21T04:05:44;7.35;99.99
69823;SHT31;57119;52.516;13.508;2024-02-21T04:08:10;7.35;99.99
69823;SHT31;57119;52.516;13.508;2024-02-21T04:10:35;7.38;99.99
69823;SHT31;57119;52.516;13.508;2024-02-21T04:13:01;7.36;99.99
69823;SHT31;57119;52.516;13.508;2024-02-21T04:15:26;7.35;99.99
69823;SHT31;57119;52.516;13.508;2024-02-21T04:17:51;7.32;99.99
69823;SHT31;57119;52.516;13.508;2024-02-21T04:20:18;7.25;99.99
69823;SHT31;57119;52.516;13.508;2024-02-21T04:22:43;7.28;99.99
69823;SHT31;57119;52.516;13.508;2024-02-21T04:25:10;7.34;99.99
69823;SHT31;57119;52.516;13.508;2024-02-21T04:27:36;7.32;99.99
69823;SHT31;57119;52.516;13.508;2024-02-21T04:30:02;7.35;99.99
69823;SHT31;57119;52.516;13.508;2024-02-21T04:32:28;7.35;99.99
69823;SHT31;57119;52.516;13.508;2024-02-21T04:34:53;7.28;99.99
69823;SHT31;57119;52.516;13.508;2024-02-21T04:37:18;7.25;99.99
69823;SHT31;57119;52.516;13.508;2024-02-21T04:39:45;7.28;99.99
69823;SHT31;57119;52.516;13.508;2024-02-21T04:42:10;7.30;99.99
69823;SHT31;57119;52.516;13.508;2024-02-21T04:44:36;7.24;99.99
69823;SHT31;57119;52.516;13.508;2024-02-21T04:47:01;7.25;99.99
69823;SHT31;57119;52.516;13.508;2024-02-21T04:49:28;7.25;99.99
69823;SHT31;57119;52.516;13.508;2024-02-21T04:51:54;7.28;99.99
69823;SHT31;57119;52.516;13.508;2024-02-21T04:54:19;7.31;99.99
69823;SHT31;57119;52.516;13.508;2024-02-21T04:56:44;7.34;99.99
69823;SHT31;57119;52.516;13.508;2024-02-21T04:59:10;7.35;99.99
69823;SHT31;57119;52.516;13.508;2024-02-21T05:01:35;7.35;99.99
69823;SHT31;57119;52.516;13.508;2024-02-21T05:04:00;7.38;99.99
69823;SHT31;57119;52.516;13.508;2024-02-21T05:06:26;7.41;99.99
69823;SHT31;57119;52.516;13.508;2024-02-21T05:08:51;7.36;99.99
69823;SHT31;57119;52.516;13.508;2024-02-21T05:11:16;7.43;99.99
69823;SHT31;57119;52.516;13.508;2024-02-21T05:13:42;7.45;99.99
69823;SHT31;57119;52.516;13.508;2024-02-21T05:16:07;7.45;99.99
69823;SHT31;57119;52.516;13.508;2024-02-21T05:18:33;7.41;99.99
69823;SHT31;57119;52.516;13.508;2024-02-21T05:20:59;7.40;99.99
69823;SHT31;57119;52.516;13.508;2024-02-21T05:23:24;7.45;99.99
69823;SHT31;57119;52.516;13.508;2024-02-21T05:25:50;7.43;99.99
69823;SHT31;57119;52.516;13.508;2024-02-21T05:28:16;7.45;99.99
69823;SHT31;57119;52.516;13.508;2024-02-21T05:30:42;7.45;99.99
69823;SHT31;57119;52.516;13.508;2024-02-21T05:33:08;7.44;99.99
69823;SHT31;57119;52.516;13.508;2024-02-21T05:35:34;7.44;99.99
69823;SHT31;57119;52.516;13.508;2024-02-21T05:37:59;7.45;99.99
69823;SHT31;57119;52.516;13.508;2024-02-21T05:40:25;7.47;99.99
69823;SHT31;57119;52.516;13.508;2024-02-21T05:42:51;7.51;99.99
69823;SHT31;57119;52.516;13.508;2024-02-21T05:45:17;7.43;99.99
69823;SHT31;57119;52.516;13.508;2024-02-21T05:47:43;7.43;99.99
69823;SHT31;57119;52.516;13.508;2024-02-21T05:50:09;7.47;99.99
69823;SHT31;57119;52.516;13.508;2024-02-21T05:52:34;7.45;99.99
69823;SHT31;57119;52.516;13.508;2024-02-21T05:55:00;7.50;99.99
69823;SHT31;57119;52.516;13.508;2024-02-21T05:57:25;7.52;99.99
69823;SHT31;57119;52.516;13.508;2024-02-21T05:59:51;7.51;99.99
69823;SHT31;57119;52.516;13.508;2024-02-21T06:02:16;7.50;99.99
69823;SHT31;57119;52.516;13.508;2024-02-21T06:04:41;7.51;99.99
69823;SHT31;57119;52.516;13.508;2024-02-21T06:07:08;7.52;99.99
69823;SHT31;57119;52.516;13.508;2024-02-21T06:09:33;7.56;99.99
69823;SHT31;57119;52.516;13.508;2024-02-21T06:11:59;7.52;99.99
69823;SHT31;57119;52.516;13.508;2024-02-21T06:14:24;7.58;99.99
69823;SHT31;57119;52.516;13.508;2024-02-21T06:16:49;7.54;99.99
69823;SHT31;57119;52.516;13.508;2024-02-21T06:19:15;7.55;99.99
69823;SHT31;57119;52.516;13.508;2024-02-21T06:21:40;7.61;99.99
69823;SHT31;57119;52.516;13.508;2024-02-21T06:24:06;7.55;99.99
69823;SHT31;57119;52.516;13.508;2024-02-21T06:26:31;7.54;99.99
69823;SHT31;57119;52.516;13.508;2024-02-21T06:28:57;7.48;99.99
69823;SHT31;57119;52.516;13.508;2024-02-21T06:31:22;7.47;99.99
69823;SHT31;57119;52.516;13.508;2024-02-21T06:33:48;7.45;99.99
69823;SHT31;57119;52.516;13.508;2024-02-21T06:36:13;7.51;99.99
69823;SHT31;57119;52.516;13.508;2024-02-21T06:38:38;7.56;99.99
69823;SHT31;57119;52.516;13.508;2024-02-21T06:41:04;7.56;99.99
69823;SHT31;57119;52.516;13.508;2024-02-21T06:43:29;7.59;99.99
69823;SHT31;57119;52.516;13.508;2024-02-21T06:45:55;7.64;99.99
69823;SHT31;57119;52.516;13.508;2024-02-21T06:48:22;7.65;99.99
69823;SHT31;57119;52.516;13.508;2024-02-21T06:50:47;7.66;99.99
69823;SHT31;57119;52.516;13.508;2024-02-21T06:53:13;7.66;99.99
69823;SHT31;57119;52.516;13.508;2024-02-21T06:55:38;7.72;99.99
69823;SHT31;57119;52.516;13.508;2024-02-21T06:58:04;7.72;99.99
69823;SHT31;57119;52.516;13.508;2024-02-21T07:00:29;7.72;99.99
69823;SHT31;57119;52.516;13.508;2024-02-21T07:02:55;7.72;99.99
69823;SHT31;57119;52.516;13.508;2024-02-21T07:05:20;7.78;99.99
69823;SHT31;57119;52.516;13.508;2024-02-21T07:07:45;7.71;99.99
69823;SHT31;57119;52.516;13.508;2024-02-21T07:10:11;7.75;99.99
69823;SHT31;57119;52.516;13.508;2024-02-21T07:12:36;7.81;99.99
69823;SHT31;57119;52.516;13.508;2024-02-21T07:15:04;7.78;99.99
69823;SHT31;57119;52.516;13.508;2024-02-21T07:17:30;7.83;99.99
69823;SHT31;57119;52.516;13.508;2024-02-21T07:19:55;7.81;99.99
69823;SHT31;57119;52.516;13.508;2024-02-21T07:22:24;7.81;99.99
69823;SHT31;57119;52.516;13.508;2024-02-21T07:24:50;7.83;99.99
69823;SHT31;57119;52.516;13.508;2024-02-21T07:27:15;7.85;99.99
69823;SHT31;57119;52.516;13.508;2024-02-21T07:29:41;7.85;99.99
69823;SHT31;57119;52.516;13.508;2024-02-21T07:32:07;7.81;99.99
69823;SHT31;57119;52.516;13.508;2024-02-21T07:34:32;7.89;99.99
69823;SHT31;57119;52.516;13.508;2024-02-21T07:36:57;7.86;99.99
69823;SHT31;57119;52.516;13.508;2024-02-21T07:39:23;7.96;99.99
69823;SHT31;57119;52.516;13.508;2024-02-21T07:41:48;7.92;99.99
69823;SHT31;57119;52.516;13.508;2024-02-21T07:44:15;7.99;99.99
69823;SHT31;57119;52.516;13.508;2024-02-21T07:46:40;7.92;99.99
69823;SHT31;57119;52.516;13.508;2024-02-21T07:49:06;8.03;99.99
69823;SHT31;57119;52.516;13.508;2024-02-21T07:51:31;7.99;99.99
69823;SHT31;57119;52.516;13.508;2024-02-21T07:53:57;8.00;99.99
69823;SHT31;57119;52.516;13.508;2024-02-21T07:56:22;7.93;99.99
69823;SHT31;57119;52.516;13.508;2024-02-21T07:58:48;7.93;99.99
69823;SHT31;57119;52.516;13.508;2024-02-21T08:01:18;8.02;99.99
69823;SHT31;57119;52.516;13.508;2024-02-21T08:03:46;8.04;99.99
69823;SHT31;57119;52.516;13.508;2024-02-21T08:06:12;8.04;99.99
69823;SHT31;57119;52.516;13.508;2024-02-21T08:08:37;8.02;99.99
69823;SHT31;57119;52.516;13.508;2024-02-21T08:11:03;8.09;99.99
69823;SHT31;57119;52.516;13.508;2024-02-21T08:13:28;8.14;99.99
69823;SHT31;57119;52.516;13.508;2024-02-21T08:15:54;8.09;99.99
69823;SHT31;57119;52.516;13.508;2024-02-21T08:18:19;8.19;99.99
69823;SHT31;57119;52.516;13.508;2024-02-21T08:20:45;8.20;99.99
69823;SHT31;57119;52.516;13.508;2024-02-21T08:23:10;8.21;99.99
69823;SHT31;57119;52.516;13.508;2024-02-21T08:25:36;8.20;99.99
69823;SHT31;57119;52.516;13.508;2024-02-21T08:28:01;8.24;99.99
69823;SHT31;57119;52.516;13.508;2024-02-21T08:30:27;8.27;99.99
69823;SHT31;57119;52.516;13.508;2024-02-21T08:32:53;8.31;99.99
69823;SHT31;57119;52.516;13.508;2024-02-21T08:35:21;8.31;99.99
69823;SHT31;57119;52.516;13.508;2024-02-21T08:37:49;8.36;99.99
69823;SHT31;57119;52.516;13.508;2024-02-21T08:40:15;8.45;99.99
69823;SHT31;57119;52.516;13.508;2024-02-21T08:42:43;8.47;99.99
69823;SHT31;57119;52.516;13.508;2024-02-21T08:45:09;8.52;99.99
69823;SHT31;57119;52.516;13.508;2024-02-21T08:47:34;8.54;99.99
69823;SHT31;57119;52.516;13.508;2024-02-21T08:50:03;8.58;99.99
69823;SHT31;57119;52.516;13.508;2024-02-21T08:52:28;8.60;99.99
69823;SHT31;57119;52.516;13.508;2024-02-21T08:54:53;8.58;99.99
69823;SHT31;57119;52.516;13.508;2024-02-21T08:57:19;8.64;99.99
69823;SHT31;57119;52.516;13.508;2024-02-21T08:59:45;8.65;99.99
69823;SHT31;57119;52.516;13.508;2024-02-21T09:02:10;8.75;99.99
69823;SHT31;57119;52.516;13.508;2024-02-21T09:04:36;8.82;99.99
69823;SHT31;57119;52.516;13.508;2024-02-21T09:07:01;8.90;99.99
69823;SHT31;57119;52.516;13.508;2024-02-21T09:09:26;8.92;99.99
69823;SHT31;57119;52.516;13.508;2024-02-21T09:11:53;8.96;99.99
69823;SHT31;57119;52.516;13.508;2024-02-21T09:14:19;8.95;99.99
69823;SHT31;57119;52.516;13.508;2024-02-21T09:16:44;8.95;99.99
69823;SHT31;57119;52.516;13.508;2024-02-21T09:19:09;8.95;99.99
69823;SHT31;57119;52.516;13.508;2024-02-21T09:21:39;8.95;99.99
69823;SHT31;57119;52.516;13.508;2024-02-21T09:24:05;8.98;99.99
69823;SHT31;57119;52.516;13.508;2024-02-21T09:26:31;9.06;99.99
69823;SHT31;57119;52.516;13.508;2024-02-21T09:28:56;9.20;99.99
69823;SHT31;57119;52.516;13.508;2024-02-21T09:31:22;9.27;99.99
69823;SHT31;57119;52.516;13.508;2024-02-21T09:33:47;9.33;99.99
69823;SHT31;57119;52.516;13.508;2024-02-21T09:36:13;9.41;99.99
69823;SHT31;57119;52.516;13.508;2024-02-21T09:38:40;9.44;99.99
69823;SHT31;57119;52.516;13.508;2024-02-21T09:41:17;9.57;99.99
69823;SHT31;57119;52.516;13.508;2024-02-21T09:43:43;9.57;99.99
69823;SHT31;57119;52.516;13.508;2024-02-21T09:46:16;9.67;99.99
69823;SHT31;57119;52.516;13.508;2024-02-21T09:51:24;9.96;99.53
69823;SHT31;57119;52.516;13.508;2024-02-21T09:53:51;9.95;99.32
69823;SHT31;57119;52.516;13.508;2024-02-21T09:56:18;9.92;98.92
69823;SHT31;57119;52.516;13.508;2024-02-21T09:58:43;10.01;98.84
69823;SHT31;57119;52.516;13.508;2024-02-21T10:01:08;10.19;98.34
69823;SHT31;57119;52.516;13.508;2024-02-21T10:03:34;10.20;98.02
69823;SHT31;57119;52.516;13.508;2024-02-21T10:06:00;10.12;97.76
69823;SHT31;57119;52.516;13.508;2024-02-21T10:08:26;10.23;98.12
69823;SHT31;57119;52.516;13.508;2024-02-21T10:10:52;10.29;98.15
69823;SHT31;57119;52.516;13.508;2024-02-21T10:13:28;10.25;97.82
69823;SHT31;57119;52.516;13.508;2024-02-21T10:16:06;10.16;97.68
69823;SHT31;57119;52.516;13.508;2024-02-21T10:18:35;10.22;97.69
69823;SHT31;57119;52.516;13.508;2024-02-21T10:21:06;10.23;97.96
69823;SHT31;57119;52.516;13.508;2024-02-21T10:23:44;10.22;97.70
69823;SHT31;57119;52.516;13.508;2024-02-21T10:26:10;10.20;97.76
69823;SHT31;57119;52.516;13.508;2024-02-21T10:28:37;10.16;97.59
69823;SHT31;57119;52.516;13.508;2024-02-21T10:31:07;10.17;97.44
69823;SHT31;57119;52.516;13.508;2024-02-21T10:33:32;10.25;97.47
69823;SHT31;57119;52.516;13.508;2024-02-21T10:36:09;10.28;97.37
69823;SHT31;57119;52.516;13.508;2024-02-21T10:38:38;10.28;97.41
69823;SHT31;57119;52.516;13.508;2024-02-21T10:41:07;10.35;97.35
69823;SHT31;57119;52.516;13.508;2024-02-21T10:43:39;10.30;97.10
69823;SHT31;57119;52.516;13.508;2024-02-21T10:46:08;10.35;96.90
69823;SHT31;57119;52.516;13.508;2024-02-21T10:48:47;10.46;96.77
69823;SHT31;57119;52.516;13.508;2024-02-21T10:51:19;10.52;96.60
69823;SHT31;57119;52.516;13.508;2024-02-21T10:56:27;10.74;96.18
69823;SHT31;57119;52.516;13.508;2024-02-21T10:58:53;10.68;96.20
69823;SHT31;57119;52.516;13.508;2024-02-21T11:01:21;10.63;96.81
69823;SHT31;57119;52.516;13.508;2024-02-21T11:03:49;10.61;96.58
69823;SHT31;57119;52.516;13.508;2024-02-21T11:06:17;10.57;96.55
69823;SHT31;57119;52.516;13.508;2024-02-21T11:08:43;10.44;97.13
69823;SHT31;57119;52.516;13.508;2024-02-21T11:11:12;10.49;97.29
69823;SHT31;57119;52.516;13.508;2024-02-21T11:13:42;10.49;97.50
69823;SHT31;57119;52.516;13.508;2024-02-21T11:18:35;10.59;97.95
69823;SHT31;57119;52.516;13.508;2024-02-21T11:21:00;10.67;97.88
69823;SHT31;57119;52.516;13.508;2024-02-21T11:23:29;11.11;96.38
69823;SHT31;57119;52.516;13.508;2024-02-21T11:26:10;11.81;95.18
69823;SHT31;57119;52.516;13.508;2024-02-21T11:28:44;12.79;92.07
69823;SHT31;57119;52.516;13.508;2024-02-21T11:31:13;12.67;91.45
69823;SHT31;57119;52.516;13.508;2024-02-21T11:33:42;12.31;92.96
69823;SHT31;57119;52.516;13.508;2024-02-21T11:36:08;12.41;93.09
69823;SHT31;57119;52.516;13.508;2024-02-21T11:38:34;12.41;92.62
69823;SHT31;57119;52.516;13.508;2024-02-21T11:40:59;12.25;92.75
69823;SHT31;57119;52.516;13.508;2024-02-21T11:43:24;12.01;93.14
69823;SHT31;57119;52.516;13.508;2024-02-21T11:45:57;13.21;90.83
69823;SHT31;57119;52.516;13.508;2024-02-21T11:48:24;14.51;87.13
69823;SHT31;57119;52.516;13.508;2024-02-21T11:50:56;14.13;87.22
69823;SHT31;57119;52.516;13.508;2024-02-21T11:53:22;13.20;88.47
69823;SHT31;57119;52.516;13.508;2024-02-21T11:55:47;13.61;89.90
69823;SHT31;57119;52.516;13.508;2024-02-21T11:58:13;13.37;88.54
69823;SHT31;57119;52.516;13.508;2024-02-21T12:00:38;13.30;88.21
69823;SHT31;57119;52.516;13.508;2024-02-21T12:03:05;13.31;88.21
69823;SHT31;57119;52.516;13.508;2024-02-21T12:05:31;13.10;89.10
69823;SHT31;57119;52.516;13.508;2024-02-21T12:07:57;13.47;89.44
69823;SHT31;57119;52.516;13.508;2024-02-21T12:10:23;15.15;86.03
69823;SHT31;57119;52.516;13.508;2024-02-21T12:12:51;16.87;81.23
69823;SHT31;57119;52.516;13.508;2024-02-21T12:15:18;16.28;81.05
69823;SHT31;57119;52.516;13.508;2024-02-21T12:17:44;16.29;79.84
69823;SHT31;57119;52.516;13.508;2024-02-21T12:20:10;16.06;80.92
69823;SHT31;57119;52.516;13.508;2024-02-21T12:22:37;16.34;80.73
69823;SHT31;57119;52.516;13.508;2024-02-21T12:25:23;15.05;83.58
69823;SHT31;57119;52.516;13.508;2024-02-21T12:27:51;14.58;84.43
69823;SHT31;57119;52.516;13.508;2024-02-21T12:30:16;14.57;85.06
69823;SHT31;57119;52.516;13.508;2024-02-21T12:32:42;14.31;84.34
69823;SHT31;57119;52.516;13.508;2024-02-21T12:35:07;14.16;85.55
69823;SHT31;57119;52.516;13.508;2024-02-21T12:37:33;14.24;85.64
69823;SHT31;57119;52.516;13.508;2024-02-21T12:39:59;17.29;80.60
69823;SHT31;57119;52.516;13.508;2024-02-21T12:42:24;20.06;73.05
69823;SHT31;57119;52.516;13.508;2024-02-21T12:44:51;20.29;72.47
69823;SHT31;57119;52.516;13.508;2024-02-21T12:47:18;20.94;70.44
69823;SHT31;57119;52.516;13.508;2024-02-21T12:49:45;19.41;72.16
69823;SHT31;57119;52.516;13.508;2024-02-21T12:52:11;16.30;78.35
69823;SHT31;57119;52.516;13.508;2024-02-21T12:54:36;15.13;81.69
69823;SHT31;57119;52.516;13.508;2024-02-21T12:57:01;13.14;85.68
69823;SHT31;57119;52.516;13.508;2024-02-21T12:59:28;13.20;86.62
69823;SHT31;57119;52.516;13.508;2024-02-21T13:01:54;14.38;85.37
69823;SHT31;57119;52.516;13.508;2024-02-21T13:04:19;16.11;80.10
69823;SHT31;57119;52.516;13.508;2024-02-21T13:06:46;15.08;82.31
69823;SHT31;57119;52.516;13.508;2024-02-21T13:09:12;14.27;84.10
69823;SHT31;57119;52.516;13.508;2024-02-21T13:11:39;13.71;85.54
69823;SHT31;57119;52.516;13.508;2024-02-21T13:14:05;13.50;86.10
69823;SHT31;57119;52.516;13.508;2024-02-21T13:16:31;12.96;86.65
69823;SHT31;57119;52.516;13.508;2024-02-21T13:18:56;12.85;87.64
69823;SHT31;57119;52.516;13.508;2024-02-21T13:21:22;12.83;88.23
69823;SHT31;57119;52.516;13.508;2024-02-21T13:23:48;12.72;88.17
69823;SHT31;57119;52.516;13.508;2024-02-21T13:26:13;12.75;88.42
69823;SHT31;57119;52.516;13.508;2024-02-21T13:28:39;12.59;88.77
69823;SHT31;57119;52.516;13.508;2024-02-21T13:31:04;12.31;89.38
69823;SHT31;57119;52.516;13.508;2024-02-21T13:33:30;12.28;89.58
69823;SHT31;57119;52.516;13.508;2024-02-21T13:35:55;12.27;90.01
69823;SHT31;57119;52.516;13.508;2024-02-21T13:38:21;12.21;89.81
69823;SHT31;57119;52.516;13.508;2024-02-21T13:40:46;12.07;90.57
69823;SHT31;57119;52.516;13.508;2024-02-21T13:43:12;11.84;90.99
69823;SHT31;57119;52.516;13.508;2024-02-21T13:45:38;11.94;91.24
69823;SHT31;57119;52.516;13.508;2024-02-21T13:48:04;11.76;91.22
69823;SHT31;57119;52.516;13.508;2024-02-21T13:50:31;11.66;91.29
69823;SHT31;57119;52.516;13.508;2024-02-21T13:52:57;11.76;91.15
69823;SHT31;57119;52.516;13.508;2024-02-21T13:55:23;11.66;91.56
69823;SHT31;57119;52.516;13.508;2024-02-21T13:57:51;11.60;91.78
69823;SHT31;57119;52.516;13.508;2024-02-21T14:00:17;11.50;91.90
69823;SHT31;57119;52.516;13.508;2024-02-21T14:02:43;11.42;91.74
69823;SHT31;57119;52.516;13.508;2024-02-21T14:05:09;11.42;91.69
69823;SHT31;57119;52.516;13.508;2024-02-21T14:07:35;11.40;91.70
69823;SHT31;57119;52.516;13.508;2024-02-21T14:10:01;11.44;91.74
69823;SHT31;57119;52.516;13.508;2024-02-21T14:12:26;11.50;91.61
69823;SHT31;57119;52.516;13.508;2024-02-21T14:14:52;11.59;91.80
69823;SHT31;57119;52.516;13.508;2024-02-21T14:17:18;11.71;91.47
69823;SHT31;57119;52.516;13.508;2024-02-21T14:19:43;11.89;91.07
69823;SHT31;57119;52.516;13.508;2024-02-21T14:22:09;11.77;91.11
69823;SHT31;57119;52.516;13.508;2024-02-21T14:24:36;11.66;91.13
69823;SHT31;57119;52.516;13.508;2024-02-21T14:27:01;11.74;90.68
69823;SHT31;57119;52.516;13.508;2024-02-21T14:29:28;11.77;90.60
69823;SHT31;57119;52.516;13.508;2024-02-21T14:31:54;11.76;90.78
69823;SHT31;57119;52.516;13.508;2024-02-21T14:34:19;11.76;90.75
69823;SHT31;57119;52.516;13.508;2024-02-21T14:36:45;11.77;90.53
69823;SHT31;57119;52.516;13.508;2024-02-21T14:39:10;11.95;90.40
69823;SHT31;57119;52.516;13.508;2024-02-21T14:41:35;12.01;90.29
69823;SHT31;57119;52.516;13.508;2024-02-21T14:44:02;11.87;90.32
69823;SHT31;57119;52.516;13.508;2024-02-21T14:46:28;11.95;90.19
69823;SHT31;57119;52.516;13.508;2024-02-21T14:48:54;11.86;90.02
69823;SHT31;57119;52.516;13.508;2024-02-21T14:51:20;11.71;90.48
69823;SHT31;57119;52.516;13.508;2024-02-21T14:53:45;11.66;90.84
69823;SHT31;57119;52.516;13.508;2024-02-21T14:56:14;11.80;90.52
69823;SHT31;57119;52.516;13.508;2024-02-21T14:58:42;11.81;90.26
69823;SHT31;57119;52.516;13.508;2024-02-21T15:01:08;11.77;90.64
69823;SHT31;57119;52.516;13.508;2024-02-21T15:03:34;11.69;90.80
69823;SHT31;57119;52.516;13.508;2024-02-21T15:05:59;11.70;90.83
69823;SHT31;57119;52.516;13.508;2024-02-21T15:08:26;11.66;90.53
69823;SHT31;57119;52.516;13.508;2024-02-21T15:10:53;11.55;90.72
69823;SHT31;57119;52.516;13.508;2024-02-21T15:13:18;11.59;90.60
69823;SHT31;57119;52.516;13.508;2024-02-21T15:15:43;11.59;90.82
69823;SHT31;57119;52.516;13.508;2024-02-21T15:18:09;11.50;90.86
69823;SHT31;57119;52.516;13.508;2024-02-21T15:20:34;11.52;91.02
69823;SHT31;57119;52.516;13.508;2024-02-21T15:23:00;11.62;90.94
69823;SHT31;57119;52.516;13.508;2024-02-21T15:25:26;11.53;90.51
69823;SHT31;57119;52.516;13.508;2024-02-21T15:27:52;11.55;90.59